Time;durP1;ratioP1;P1;durP2;ratioP2;P2;SDS_P1;SDS_P2;PMS_P1;PMS_P2;Temp;Humidity;BMP_temperature;BMP_pressure;BME280_temperature;BME280_humidity;BME280_pressure;Samples;Min_cycle;Max_cycle;Signal;HPM_P1;HPM_P2
2022/10/03 00:02:19;;;;;;;5.00;4.03;;;;;;;;;;4993225;28;20968;-58
2022/10/03 00:05:00;;;;;;;5.10;4.10;;;;;;;;;;4976379;28;20445;-58
2022/10/03 00:07:31;;;;;;;5.03;3.83;;;;;;;;;;4997111;28;20448;-57
2022/10/03 00:10:08;;;;;;;6.00;4.10;;;;;;;;;;4971939;28;20564;-57
2022/10/03 00:12:49;;;;;;;5.20;4.70;;;;;;;;;;5000834;28;20684;-58
2022/10/03 00:15:15;;;;;;;6.00;4.27;;;;;;;;;;4995750;28;20447;-58
2022/10/03 00:17:44;;;;;;;5.77;5.17;;;;;;;;;;4999253;28;20428;-58
2022/10/03 00:20:49;;;;;;;6.30;5.00;;;;;;;;;;4974626;28;20508;-58
2022/10/03 00:23:17;;;;;;;7.00;5.27;;;;;;;;;;4977009;28;20437;-58
2022/10/03 00:25:55;;;;;;;7.57;5.27;;;;;;;;;;4954314;28;20641;-56
2022/10/03 00:28:41;;;;;;;5.60;4.40;;;;;;;;;;4982080;28;20439;-57
2022/10/03 00:31:12;;;;;;;11.63;6.03;;;;;;;;;;4977468;28;20440;-58
2022/10/03 00:33:50;;;;;;;7.13;6.43;;;;;;;;;;5000032;28;20447;-58
2022/10/03 00:36:21;;;;;;;6.03;5.20;;;;;;;;;;4975189;28;20432;-57
2022/10/03 00:39:01;;;;;;;9.00;5.57;;;;;;;;;;4999177;28;20442;-57
2022/10/03 00:41:46;;;;;;;8.00;5.63;;;;;;;;;;4979093;28;20490;-57
2022/10/03 00:44:20;;;;;;;8.07;5.93;;;;;;;;;;4997427;28;20528;-58
2022/10/03 00:46:49;;;;;;;7.80;6.20;;;;;;;;;;4986831;28;20468;-57
2022/10/03 00:49:28;;;;;;;7.00;6.30;;;;;;;;;;4999375;28;20983;-58
2022/10/03 00:52:06;;;;;;;8.70;6.23;;;;;;;;;;4986317;28;20432;-57
2022/10/03 00:54:51;;;;;;;6.10;5.50;;;;;;;;;;4991715;28;20458;-57
2022/10/03 00:57:26;;;;;;;6.27;5.17;;;;;;;;;;5025837;28;20566;-57
2022/10/03 00:59:52;;;;;;;8.30;5.33;;;;;;;;;;4971450;28;20838;-55
2022/10/03 01:02:25;;;;;;;9.60;6.43;;;;;;;;;;4994904;28;20925;-56
2022/10/03 01:05:07;;;;;;;7.27;6.13;;;;;;;;;;4994237;28;21502;-59
2022/10/03 01:07:38;;;;;;;6.77;6.07;;;;;;;;;;4997264;28;20455;-58
2022/10/03 01:10:08;;;;;;;9.47;6.63;;;;;;;;;;4972110;28;20440;-58
2022/10/03 01:12:48;;;;;;;10.93;7.67;;;;;;;;;;4998665;28;20471;-58
2022/10/03 01:15:14;;;;;;;8.40;6.90;;;;;;;;;;5020787;28;20784;-58
2022/10/03 01:17:54;;;;;;;8.80;6.60;;;;;;;;;;4998038;28;20428;-58
2022/10/03 01:20:29;;;;;;;8.23;6.57;;;;;;;;;;4994862;28;20439;-58
2022/10/03 01:23:14;;;;;;;8.43;6.90;;;;;;;;;;4995313;28;20444;-59
2022/10/03 01:25:43;;;;;;;12.53;6.70;;;;;;;;;;4972137;28;20536;-58
2022/10/03 01:30:59;;;;;;;9.40;6.93;;;;;;;;;;4967949;28;20976;-58
2022/10/03 01:33:27;;;;;;;11.93;7.80;;;;;;;;;;4995873;28;20447;-59
2022/10/03 01:35:57;;;;;;;11.50;7.80;;;;;;;;;;4993472;28;20519;-58
2022/10/03 01:38:28;;;;;;;8.73;7.87;;;;;;;;;;4997225;28;20462;-58
2022/10/03 01:41:01;;;;;;;10.83;7.57;;;;;;;;;;4993366;28;20942;-57
2022/10/03 01:43:39;;;;;;;10.13;8.30;;;;;;;;;;5027914;28;20486;-59
2022/10/03 01:46:11;;;;;;;15.50;9.70;;;;;;;;;;4975733;28;20479;-58
2022/10/03 01:48:43;;;;;;;15.23;7.60;;;;;;;;;;5023041;28;20495;-58
2022/10/03 01:51:11;;;;;;;10.27;7.80;;;;;;;;;;4980320;28;20440;-58
2022/10/03 01:53:56;;;;;;;7.70;6.87;;;;;;;;;;5002647;28;20545;-59
2022/10/03 01:56:39;;;;;;;13.50;8.07;;;;;;;;;;4985903;28;20829;-58
2022/10/03 01:59:14;;;;;;;15.60;8.30;;;;;;;;;;4984166;28;20456;-58
2022/10/03 02:01:48;;;;;;;9.27;7.30;;;;;;;;;;4971813;28;20435;-58
2022/10/03 02:04:17;;;;;;;9.43;7.53;;;;;;;;;;4998994;28;20948;-57
2022/10/03 02:07:02;;;;;;;10.83;7.07;;;;;;;;;;4997126;28;20483;-58
2022/10/03 02:09:46;;;;;;;10.93;8.80;;;;;;;;;;4994834;28;20903;-58
2022/10/03 02:12:22;;;;;;;10.70;8.43;;;;;;;;;;4989682;28;20447;-58
2022/10/03 02:14:51;;;;;;;10.70;7.97;;;;;;;;;;4978267;28;20447;-58
2022/10/03 02:17:36;;;;;;;10.13;8.00;;;;;;;;;;4993713;28;20428;-58
2022/10/03 02:20:06;;;;;;;10.13;7.93;;;;;;;;;;4998803;28;20463;-57
2022/10/03 02:22:34;;;;;;;17.10;9.27;;;;;;;;;;5026551;28;20464;-57
2022/10/03 02:25:19;;;;;;;13.33;8.60;;;;;;;;;;4973553;28;20460;-57
2022/10/03 02:28:04;;;;;;;18.53;9.67;;;;;;;;;;4996119;28;20466;-57
2022/10/03 02:30:51;;;;;;;11.40;9.57;;;;;;;;;;4995939;28;22643;-58
2022/10/03 02:33:38;;;;;;;13.93;8.70;;;;;;;;;;4976822;28;20446;-57
2022/10/03 02:36:15;;;;;;;11.20;8.60;;;;;;;;;;4999113;28;20432;-57
2022/10/03 02:39:00;;;;;;;16.30;8.57;;;;;;;;;;5025822;28;20900;-57
2022/10/03 02:41:35;;;;;;;11.10;9.10;;;;;;;;;;4994227;28;23066;-57
2022/10/03 02:44:05;;;;;;;13.13;7.37;;;;;;;;;;5007235;28;21205;-57
2022/10/03 02:46:40;;;;;;;13.50;9.00;;;;;;;;;;4979554;28;20479;-57
2022/10/03 02:49:12;;;;;;;9.83;7.97;;;;;;;;;;5004778;28;20438;-57
2022/10/03 02:51:41;;;;;;;13.10;9.57;;;;;;;;;;4982307;28;20479;-58
2022/10/03 02:54:16;;;;;;;14.43;9.40;;;;;;;;;;5008823;28;20447;-58
2022/10/03 02:56:57;;;;;;;15.80;10.00;;;;;;;;;;4983945;28;20455;-58
2022/10/03 02:59:40;;;;;;;14.50;9.67;;;;;;;;;;5007166;28;20474;-58
2022/10/03 03:02:18;;;;;;;11.47;9.13;;;;;;;;;;4983664;28;21323;-58
2022/10/03 03:04:57;;;;;;;14.80;8.80;;;;;;;;;;5007766;28;20435;-58
2022/10/03 03:07:41;;;;;;;10.97;8.43;;;;;;;;;;4978396;28;20459;-57
2022/10/03 03:10:10;;;;;;;11.90;9.07;;;;;;;;;;5008453;28;20975;-57
2022/10/03 03:12:39;;;;;;;10.93;8.07;;;;;;;;;;5005811;28;20428;-57
2022/10/03 03:15:11;;;;;;;13.10;8.60;;;;;;;;;;5001015;28;20835;-59
2022/10/03 03:17:56;;;;;;;10.67;7.53;;;;;;;;;;4986127;28;20518;-57
2022/10/03 03:20:28;;;;;;;17.13;9.33;;;;;;;;;;5002107;28;20425;-57
2022/10/03 03:23:02;;;;;;;9.93;7.40;;;;;;;;;;5007471;28;20534;-59
2022/10/03 03:25:47;;;;;;;10.03;8.10;;;;;;;;;;5028649;28;20482;-57
2022/10/03 03:28:31;;;;;;;13.00;8.37;;;;;;;;;;5025748;28;20437;-58
2022/10/03 03:31:02;;;;;;;13.70;7.80;;;;;;;;;;4978940;28;20482;-55
2022/10/03 03:33:34;;;;;;;10.67;7.77;;;;;;;;;;4996243;28;20719;-58
2022/10/03 03:36:17;;;;;;;11.73;8.67;;;;;;;;;;4987468;28;22610;-57
2022/10/03 03:39:05;;;;;;;10.80;7.37;;;;;;;;;;4992687;28;20451;-58
2022/10/03 03:41:44;;;;;;;10.10;7.20;;;;;;;;;;4989777;28;20447;-58
2022/10/03 03:44:13;;;;;;;11.67;8.27;;;;;;;;;;4998007;28;20458;-58
2022/10/03 03:46:58;;;;;;;13.70;8.10;;;;;;;;;;4986218;28;22282;-58
2022/10/03 03:49:42;;;;;;;16.83;8.60;;;;;;;;;;5002284;28;20444;-59
2022/10/03 03:52:11;;;;;;;13.27;8.03;;;;;;;;;;4974993;28;20508;-59
2022/10/03 03:54:48;;;;;;;11.83;7.90;;;;;;;;;;5001068;28;20451;-58
2022/10/03 03:57:21;;;;;;;9.47;7.33;;;;;;;;;;5023256;28;20524;-58
2022/10/03 03:59:59;;;;;;;14.03;9.57;;;;;;;;;;4999233;28;20456;-58
2022/10/03 04:02:25;;;;;;;9.13;6.47;;;;;;;;;;4976048;28;20452;-58
2022/10/03 04:04:51;;;;;;;9.47;7.50;;;;;;;;;;4998022;28;20428;-58
2022/10/03 04:07:20;;;;;;;11.73;6.03;;;;;;;;;;4964579;28;20487;-57
2022/10/03 04:09:58;;;;;;;7.43;6.13;;;;;;;;;;5026372;28;20460;-56
2022/10/03 04:12:37;;;;;;;14.90;7.10;;;;;;;;;;4989834;28;20446;-58
2022/10/03 04:15:16;;;;;;;11.53;7.10;;;;;;;;;;4993656;28;21365;-58
2022/10/03 04:20:26;;;;;;;15.80;7.30;;;;;;;;;;4997071;28;22277;-58
2022/10/03 04:22:57;;;;;;;9.27;6.80;;;;;;;;;;4970252;28;20554;-58
2022/10/03 04:25:27;;;;;;;9.07;7.17;;;;;;;;;;4997200;28;20474;-58
2022/10/03 04:27:52;;;;;;;11.27;6.83;;;;;;;;;;4997753;28;20463;-58
2022/10/03 04:30:19;;;;;;;10.57;7.97;;;;;;;;;;4997682;28;20941;-57
2022/10/03 04:33:05;;;;;;;11.57;6.80;;;;;;;;;;4966430;28;21015;-58
2022/10/03 04:35:43;;;;;;;8.10;6.70;;;;;;;;;;4998730;28;20436;-58
2022/10/03 04:38:15;;;;;;;10.50;7.07;;;;;;;;;;4973304;28;20913;-58
2022/10/03 04:40:43;;;;;;;9.97;6.57;;;;;;;;;;4998872;28;20522;-58
2022/10/03 04:43:40;;;;;;;7.33;6.00;;;;;;;;;;5020588;28;20436;-58
2022/10/03 04:46:15;;;;;;;13.20;8.10;;;;;;;;;;4996940;28;20488;-58
2022/10/03 04:49:00;;;;;;;9.00;7.67;;;;;;;;;;4994180;28;20440;-59
2022/10/03 04:51:40;;;;;;;11.10;6.70;;;;;;;;;;4995494;28;20591;-58
2022/10/03 04:54:06;;;;;;;7.87;6.40;;;;;;;;;;4976980;28;20440;-58
2022/10/03 04:56:40;;;;;;;10.63;6.43;;;;;;;;;;4997901;28;20458;-58
2022/10/03 04:59:24;;;;;;;9.53;6.37;;;;;;;;;;4970428;28;20463;-58
2022/10/03 05:01:53;;;;;;;9.37;6.07;;;;;;;;;;4999176;28;20940;-57
2022/10/03 05:04:34;;;;;;;10.93;7.00;;;;;;;;;;4972704;28;20451;-59
2022/10/03 05:07:07;;;;;;;8.50;6.70;;;;;;;;;;5001101;28;20863;-59
2022/10/03 05:09:33;;;;;;;8.80;7.23;;;;;;;;;;4976232;28;20448;-57
2022/10/03 05:12:07;;;;;;;10.80;6.93;;;;;;;;;;4996987;28;20440;-57
2022/10/03 05:14:34;;;;;;;14.77;6.33;;;;;;;;;;4954876;28;20506;-56
2022/10/03 05:17:05;;;;;;;8.30;6.27;;;;;;;;;;4996500;28;20440;-57
2022/10/03 05:19:35;;;;;;;7.70;5.93;;;;;;;;;;4995579;28;20452;-57
2022/10/03 05:22:11;;;;;;;8.37;6.27;;;;;;;;;;4998196;28;20428;-57
2022/10/03 05:24:46;;;;;;;6.83;5.77;;;;;;;;;;4972400;28;20468;-57
2022/10/03 05:27:25;;;;;;;9.03;6.20;;;;;;;;;;4998621;28;20491;-57
2022/10/03 05:30:09;;;;;;;7.33;5.20;;;;;;;;;;4964434;28;20538;-57
2022/10/03 05:32:39;;;;;;;9.07;5.67;;;;;;;;;;4983218;28;20476;-58
2022/10/03 05:35:13;;;;;;;10.00;6.97;;;;;;;;;;4995909;28;20780;-58
2022/10/03 05:37:59;;;;;;;14.10;7.27;;;;;;;;;;4999411;28;20440;-57
2022/10/03 05:40:34;;;;;;;16.50;9.97;;;;;;;;;;4973264;28;21461;-57
2022/10/03 05:43:07;;;;;;;13.70;9.00;;;;;;;;;;5011110;28;20443;-57
2022/10/03 05:45:47;;;;;;;16.43;10.30;;;;;;;;;;4978668;28;20476;-57
2022/10/03 05:48:19;;;;;;;24.73;11.70;;;;;;;;;;4994464;28;20428;-57
2022/10/03 05:51:10;;;;;;;19.03;11.03;;;;;;;;;;4994371;28;21066;-57
2022/10/03 05:53:43;;;;;;;17.43;10.30;;;;;;;;;;5000344;28;20451;-57
2022/10/03 05:56:27;;;;;;;15.73;10.43;;;;;;;;;;4979656;28;21019;-57
2022/10/03 05:58:56;;;;;;;24.33;13.30;;;;;;;;;;4992420;28;20502;-58
2022/10/03 06:01:31;;;;;;;23.13;12.40;;;;;;;;;;4967499;28;20440;-57
2022/10/03 06:04:05;;;;;;;17.10;12.03;;;;;;;;;;4997349;28;20917;-57
2022/10/03 06:06:49;;;;;;;21.10;13.80;;;;;;;;;;4973904;28;20467;-56
2022/10/03 06:09:30;;;;;;;22.83;12.57;;;;;;;;;;4997452;28;20490;-56
2022/10/03 06:11:56;;;;;;;18.97;11.33;;;;;;;;;;4998025;28;20505;-57
2022/10/03 06:14:34;;;;;;;24.17;13.67;;;;;;;;;;4996403;28;22312;-57
2022/10/03 06:17:00;;;;;;;18.47;12.10;;;;;;;;;;4986234;28;20197;-57
2022/10/03 06:19:45;;;;;;;19.00;10.77;;;;;;;;;;4997966;28;20432;-54
2022/10/03 06:22:40;;;;;;;20.57;13.47;;;;;;;;;;4974458;28;20452;-57
2022/10/03 06:25:24;;;;;;;26.20;13.03;;;;;;;;;;4978690;28;20433;-57
2022/10/03 06:28:20;;;;;;;23.07;14.10;;;;;;;;;;4994972;28;21113;-57
2022/10/03 06:30:52;;;;;;;24.67;13.17;;;;;;;;;;5023518;28;20485;-57
2022/10/03 06:33:27;;;;;;;19.30;11.40;;;;;;;;;;4986784;28;20452;-56
2022/10/03 06:36:02;;;;;;;21.13;13.10;;;;;;;;;;4997522;28;20435;-57
2022/10/03 06:38:37;;;;;;;24.63;13.97;;;;;;;;;;5000003;28;20546;-58
2022/10/03 06:41:06;;;;;;;22.73;12.80;;;;;;;;;;4976807;28;21418;-57
2022/10/03 06:43:50;;;;;;;24.37;13.57;;;;;;;;;;4995679;28;21987;-57
2022/10/03 06:46:35;;;;;;;20.13;14.10;;;;;;;;;;4992664;28;20467;-56
2022/10/03 06:49:01;;;;;;;22.13;12.90;;;;;;;;;;4997584;28;20432;-57
2022/10/03 06:51:36;;;;;;;16.93;12.10;;;;;;;;;;4970868;28;20469;-56
2022/10/03 06:54:40;;;;;;;22.40;12.80;;;;;;;;;;5001376;28;20506;-57
2022/10/03 06:57:12;;;;;;;23.50;13.67;;;;;;;;;;5002428;28;20443;-56
2022/10/03 06:59:45;;;;;;;20.73;13.40;;;;;;;;;;5016643;28;20906;-57
2022/10/03 07:02:29;;;;;;;19.77;13.07;;;;;;;;;;4985740;28;20428;-58
2022/10/03 07:05:13;;;;;;;21.53;11.70;;;;;;;;;;5001027;28;20432;-55
2022/10/03 07:07:49;;;;;;;19.87;14.67;;;;;;;;;;4981838;28;20452;-56
2022/10/03 07:10:23;;;;;;;22.47;14.93;;;;;;;;;;5005109;28;20438;-55
2022/10/03 07:12:53;;;;;;;16.57;11.43;;;;;;;;;;5007332;28;21031;-55
2022/10/03 07:15:25;;;;;;;19.07;12.47;;;;;;;;;;5001584;28;20443;-55
2022/10/03 07:17:54;;;;;;;21.17;12.03;;;;;;;;;;4982016;28;20536;-55
2022/10/03 07:20:37;;;;;;;20.47;12.20;;;;;;;;;;5006871;28;20888;-56
2022/10/03 07:23:03;;;;;;;24.23;10.70;;;;;;;;;;4982805;28;20455;-57
2022/10/03 07:25:48;;;;;;;19.10;11.87;;;;;;;;;;5005384;28;20495;-56
2022/10/03 07:28:33;;;;;;;27.37;12.00;;;;;;;;;;5000934;28;20443;-56
2022/10/03 07:31:08;;;;;;;25.67;12.20;;;;;;;;;;4987982;28;20446;-56
2022/10/03 07:33:53;;;;;;;18.43;12.40;;;;;;;;;;4994749;28;20924;-57
2022/10/03 07:39:08;;;;;;;16.37;11.80;;;;;;;;;;5026181;28;20463;-56
2022/10/03 07:41:50;;;;;;;20.57;11.93;;;;;;;;;;4977489;28;21041;-56
2022/10/03 07:44:29;;;;;;;18.03;11.23;;;;;;;;;;5034716;28;20535;-56
2022/10/03 07:46:55;;;;;;;16.77;10.03;;;;;;;;;;4971086;28;20488;-56
2022/10/03 07:49:21;;;;;;;16.37;12.07;;;;;;;;;;5004165;28;20443;-56
2022/10/03 07:51:53;;;;;;;19.33;11.50;;;;;;;;;;4995829;28;20463;-56
2022/10/03 07:54:24;;;;;;;24.00;12.50;;;;;;;;;;4991822;28;21031;-56
2022/10/03 07:56:55;;;;;;;17.37;11.90;;;;;;;;;;4999780;28;20412;-56
2022/10/03 07:59:37;;;;;;;16.80;11.07;;;;;;;;;;5004192;28;20452;-56
2022/10/03 08:02:12;;;;;;;16.67;10.10;;;;;;;;;;4982666;28;20538;-56
2022/10/03 08:04:38;;;;;;;15.90;10.70;;;;;;;;;;5001261;28;20467;-56
2022/10/03 08:07:24;;;;;;;16.30;9.90;;;;;;;;;;4999683;28;20583;-55
2022/10/03 08:09:54;;;;;;;21.50;11.13;;;;;;;;;;5004227;28;20440;-55
2022/10/03 08:12:30;;;;;;;15.50;10.70;;;;;;;;;;4977992;28;20515;-55
2022/10/03 08:15:09;;;;;;;15.77;10.63;;;;;;;;;;5025328;28;20471;-55
2022/10/03 08:17:50;;;;;;;20.30;12.70;;;;;;;;;;4997732;28;20985;-55
2022/10/03 08:20:26;;;;;;;13.00;10.30;;;;;;;;;;5013600;28;21149;-55
2022/10/03 08:23:11;;;;;;;14.83;10.10;;;;;;;;;;4984111;28;20460;-55
2022/10/03 08:26:02;;;;;;;18.80;11.20;;;;;;;;;;5002967;28;20474;-55
2022/10/03 08:28:40;;;;;;;14.77;11.80;;;;;;;;;;4957724;28;20440;-54
2022/10/03 08:31:25;;;;;;;15.53;11.23;;;;;;;;;;4987229;28;20510;-54
2022/10/03 08:34:10;;;;;;;16.30;10.10;;;;;;;;;;4992972;28;20468;-55
2022/10/03 08:36:47;;;;;;;19.90;10.50;;;;;;;;;;5002120;28;20436;-55
2022/10/03 08:39:42;;;;;;;19.20;10.63;;;;;;;;;;5007609;28;20497;-55
2022/10/03 08:42:14;;;;;;;13.43;10.33;;;;;;;;;;4976790;28;20450;-57
2022/10/03 08:44:43;;;;;;;14.70;9.40;;;;;;;;;;4997026;28;20443;-57
2022/10/03 08:47:16;;;;;;;14.23;9.17;;;;;;;;;;4976675;28;21003;-56
2022/10/03 08:49:57;;;;;;;16.83;9.73;;;;;;;;;;5003091;28;20539;-56
2022/10/03 08:52:30;;;;;;;18.97;9.30;;;;;;;;;;4963558;28;20467;-55
2022/10/03 08:54:57;;;;;;;13.10;7.87;;;;;;;;;;5001281;28;20436;-55
2022/10/03 08:57:59;;;;;;;17.20;8.50;;;;;;;;;;4998572;28;20436;-56
2022/10/03 09:00:57;;;;;;;12.50;9.07;;;;;;;;;;4950345;28;20434;-55
2022/10/03 09:03:30;;;;;;;16.00;8.97;;;;;;;;;;4991351;28;20554;-55
2022/10/03 09:06:19;;;;;;;13.70;8.10;;;;;;;;;;4974604;28;20476;-55
2022/10/03 09:08:57;;;;;;;13.23;9.60;;;;;;;;;;4992680;28;21130;-54
2022/10/03 09:11:45;;;;;;;15.17;8.10;;;;;;;;;;5001082;28;20455;-54
2022/10/03 09:14:50;;;;;;;15.13;8.43;;;;;;;;;;5008113;28;21008;-54
2022/10/03 09:17:24;;;;;;;11.33;7.60;;;;;;;;;;4981381;28;20445;-56
2022/10/03 09:19:59;;;;;;;10.97;6.57;;;;;;;;;;4931220;28;21277;-58
2022/10/03 09:22:32;;;;;;;14.93;8.40;;;;;;;;;;4987941;28;20440;-55
2022/10/03 09:25:02;;;;;;;11.60;6.60;;;;;;;;;;4973923;28;20450;-54
2022/10/03 09:27:37;;;;;;;10.47;7.27;;;;;;;;;;4994897;28;20571;-55
2022/10/03 09:30:22;;;;;;;9.00;6.93;;;;;;;;;;4961734;28;20440;-55
2022/10/03 09:32:50;;;;;;;15.57;8.67;;;;;;;;;;4987174;28;20968;-53
2022/10/03 09:35:29;;;;;;;13.90;7.87;;;;;;;;;;4998885;28;20444;-55
2022/10/03 09:37:58;;;;;;;10.63;7.87;;;;;;;;;;4950366;28;21587;-55
2022/10/03 09:40:27;;;;;;;13.57;8.17;;;;;;;;;;4992137;28;20467;-56
2022/10/03 09:42:59;;;;;;;10.23;7.43;;;;;;;;;;4975833;28;23244;-55
2022/10/03 09:45:34;;;;;;;9.00;6.27;;;;;;;;;;4978913;28;20530;-55
2022/10/03 09:48:19;;;;;;;8.43;6.43;;;;;;;;;;4990954;28;20440;-55
2022/10/03 09:50:50;;;;;;;10.00;6.10;;;;;;;;;;4972525;28;20520;-55
2022/10/03 09:53:36;;;;;;;5.90;5.30;;;;;;;;;;4998634;28;20439;-53
2022/10/03 09:56:11;;;;;;;9.20;5.13;;;;;;;;;;4970482;28;20523;-56
2022/10/03 09:58:56;;;;;;;10.93;5.10;;;;;;;;;;4995162;28;20431;-53
2022/10/03 10:01:22;;;;;;;9.23;5.50;;;;;;;;;;4969985;28;21486;-55
2022/10/03 10:04:07;;;;;;;10.87;5.70;;;;;;;;;;4992839;28;21102;-53
2022/10/03 10:06:45;;;;;;;4.60;4.03;;;;;;;;;;4994816;28;20472;-53
2022/10/03 10:09:11;;;;;;;12.17;4.90;;;;;;;;;;5003269;28;22071;-54
2022/10/03 10:11:37;;;;;;;8.43;4.63;;;;;;;;;;4981589;28;20507;-52
2022/10/03 10:14:03;;;;;;;9.33;4.70;;;;;;;;;;5000403;28;20573;-53
2022/10/03 10:16:32;;;;;;;7.43;4.97;;;;;;;;;;4983189;28;20510;-54
2022/10/03 10:18:58;;;;;;;9.67;5.17;;;;;;;;;;5000159;28;20443;-54
2022/10/03 10:21:40;;;;;;;9.40;4.77;;;;;;;;;;4981582;28;20576;-54
2022/10/03 10:24:25;;;;;;;6.13;5.17;;;;;;;;;;5005521;28;20451;-55
2022/10/03 10:27:09;;;;;;;10.13;5.00;;;;;;;;;;4980916;28;20971;-54
2022/10/03 10:29:38;;;;;;;6.60;5.23;;;;;;;;;;5006016;28;20490;-55
2022/10/03 10:32:12;;;;;;;10.00;4.90;;;;;;;;;;4969843;28;20479;-54
2022/10/03 10:34:42;;;;;;;7.40;5.60;;;;;;;;;;4988426;28;20441;-55
2022/10/03 10:37:28;;;;;;;8.10;4.60;;;;;;;;;;4995274;28;20427;-55
2022/10/03 10:40:01;;;;;;;10.70;5.30;;;;;;;;;;4996710;28;20443;-55
2022/10/03 10:42:36;;;;;;;10.10;6.30;;;;;;;;;;4975407;28;20519;-55
2022/10/03 10:45:21;;;;;;;11.00;5.07;;;;;;;;;;4999669;28;20440;-54
2022/10/03 10:48:05;;;;;;;9.03;5.27;;;;;;;;;;4995144;28;21338;-56
2022/10/03 10:50:51;;;;;;;7.70;5.00;;;;;;;;;;4998579;28;20450;-55
2022/10/03 10:53:23;;;;;;;9.67;5.30;;;;;;;;;;4972586;28;20459;-55
2022/10/03 10:55:52;;;;;;;5.60;5.00;;;;;;;;;;4999331;28;20499;-58
2022/10/03 10:58:18;;;;;;;8.93;4.63;;;;;;;;;;4976026;28;20511;-55
2022/10/03 11:00:53;;;;;;;5.43;4.30;;;;;;;;;;4997482;28;20471;-55
2022/10/03 11:03:38;;;;;;;7.03;4.20;;;;;;;;;;5001773;28;20601;-58
2022/10/03 11:06:10;;;;;;;10.43;4.63;;;;;;;;;;4998997;28;20503;-56
2022/10/03 11:08:55;;;;;;;7.27;4.90;;;;;;;;;;4996053;28;20464;-54
2022/10/03 11:11:40;;;;;;;9.37;4.77;;;;;;;;;;4998200;28;20487;-55
2022/10/03 11:14:27;;;;;;;7.13;4.00;;;;;;;;;;4978420;28;20574;-55
2022/10/03 11:17:11;;;;;;;8.90;5.20;;;;;;;;;;4996818;28;20432;-54
2022/10/03 11:19:56;;;;;;;9.37;4.70;;;;;;;;;;4971211;28;20459;-55
2022/10/03 11:22:25;;;;;;;9.70;5.00;;;;;;;;;;5000209;28;20528;-54
2022/10/03 11:25:11;;;;;;;15.57;4.90;;;;;;;;;;4974095;28;20444;-55
2022/10/03 11:27:56;;;;;;;7.47;5.10;;;;;;;;;;5005774;28;20498;-54
2022/10/03 11:30:25;;;;;;;8.37;4.20;;;;;;;;;;4983609;28;20448;-55
2022/10/03 11:33:01;;;;;;;8.00;4.33;;;;;;;;;;4999936;28;20901;-54
2022/10/03 11:35:45;;;;;;;5.90;4.93;;;;;;;;;;4961604;28;21076;-55
2022/10/03 11:38:14;;;;;;;6.57;4.90;;;;;;;;;;5000364;28;20558;-57
2022/10/03 11:40:43;;;;;;;5.67;3.40;;;;;;;;;;4998123;28;20458;-54
2022/10/03 11:43:15;;;;;;;10.70;4.47;;;;;;;;;;5001015;28;20444;-55
2022/10/03 11:45:49;;;;;;;5.87;3.30;;;;;;;;;;4973589;28;20477;-56
2022/10/03 11:48:34;;;;;;;7.57;3.40;;;;;;;;;;4998703;28;20463;-55
2022/10/03 11:51:07;;;;;;;7.07;3.63;;;;;;;;;;4980181;28;20425;-55
2022/10/03 11:53:48;;;;;;;6.70;4.10;;;;;;;;;;4998022;28;20512;-56
2022/10/03 11:56:53;;;;;;;5.57;3.23;;;;;;;;;;4990511;28;21019;-56
2022/10/03 11:59:28;;;;;;;9.00;3.60;;;;;;;;;;4941979;28;20497;-55
2022/10/03 12:02:23;;;;;;;5.00;3.63;;;;;;;;;;4972741;28;20480;-55
2022/10/03 12:05:08;;;;;;;5.43;3.07;;;;;;;;;;4896257;28;23811;-54
2022/10/03 12:10:32;;;;;;;9.47;3.37;;;;;;;;;;4988429;28;20487;-56
2022/10/03 12:12:58;;;;;;;8.30;4.33;;;;;;;;;;5014412;28;20945;-56
2022/10/03 12:15:44;;;;;;;6.00;3.60;;;;;;;;;;4961426;28;20475;-56
2022/10/03 12:18:32;;;;;;;7.67;3.10;;;;;;;;;;4991651;28;20977;-55
2022/10/03 12:21:17;;;;;;;6.53;3.20;;;;;;;;;;4970681;28;21154;-54
2022/10/03 12:23:50;;;;;;;4.10;3.70;;;;;;;;;;4997303;28;20821;-56
2022/10/03 12:26:17;;;;;;;5.10;3.90;;;;;;;;;;4965688;28;20491;-53
2022/10/03 12:28:45;;;;;;;9.83;3.77;;;;;;;;;;5018600;28;20435;-54
2022/10/03 12:31:23;;;;;;;7.83;4.10;;;;;;;;;;4994643;28;20464;-55
2022/10/03 12:33:52;;;;;;;8.00;3.57;;;;;;;;;;5000698;28;20452;-57
2022/10/03 12:36:20;;;;;;;5.43;2.70;;;;;;;;;;4976426;28;20447;-56
2022/10/03 12:38:46;;;;;;;3.50;2.80;;;;;;;;;;5003066;28;20977;-57
2022/10/03 12:41:32;;;;;;;6.60;3.30;;;;;;;;;;4977865;28;20547;-56
2022/10/03 12:44:17;;;;;;;10.73;5.77;;;;;;;;;;4995282;28;20440;-57
2022/10/03 12:47:03;;;;;;;6.13;3.67;;;;;;;;;;4976253;28;20502;-56
2022/10/03 12:49:35;;;;;;;5.97;3.77;;;;;;;;;;4989241;28;20442;-55
2022/10/03 12:52:02;;;;;;;7.83;2.53;;;;;;;;;;4988861;28;21574;-55
2022/10/03 12:54:39;;;;;;;6.03;3.23;;;;;;;;;;5011370;28;20454;-54
2022/10/03 12:57:08;;;;;;;6.20;2.90;;;;;;;;;;4986498;28;20444;-56
2022/10/03 12:59:45;;;;;;;3.63;3.03;;;;;;;;;;4989750;28;20516;-56
2022/10/03 13:02:11;;;;;;;4.03;2.90;;;;;;;;;;4992356;28;20439;-56
2022/10/03 13:04:40;;;;;;;5.13;3.07;;;;;;;;;;4996946;28;20459;-56
2022/10/03 13:07:21;;;;;;;6.47;2.50;;;;;;;;;;4994578;28;20992;-55
2022/10/03 13:09:56;;;;;;;4.07;2.67;;;;;;;;;;4966602;28;20444;-55
2022/10/03 13:12:30;;;;;;;4.77;2.90;;;;;;;;;;4986817;28;20928;-55
2022/10/03 13:15:16;;;;;;;5.30;2.80;;;;;;;;;;4974271;28;20562;-54
2022/10/03 13:17:51;;;;;;;3.30;2.63;;;;;;;;;;4994610;28;20443;-56
2022/10/03 13:20:23;;;;;;;4.80;3.20;;;;;;;;;;4967230;28;20436;-55
2022/10/03 13:22:55;;;;;;;6.77;3.60;;;;;;;;;;4998280;28;20471;-55
2022/10/03 13:25:25;;;;;;;2.93;2.43;;;;;;;;;;4978182;28;20440;-53
2022/10/03 13:28:09;;;;;;;4.53;2.57;;;;;;;;;;5000554;28;20506;-56
2022/10/03 13:30:42;;;;;;;5.20;2.70;;;;;;;;;;4974700;28;20455;-54
2022/10/03 13:33:11;;;;;;;8.77;3.23;;;;;;;;;;4994126;28;20432;-53
2022/10/03 13:36:00;;;;;;;3.50;2.83;;;;;;;;;;4967418;28;20448;-54
2022/10/03 13:38:56;;;;;;;3.80;2.70;;;;;;;;;;4997276;28;20439;-52
2022/10/03 13:42:00;;;;;;;2.90;2.50;;;;;;;;;;4989068;28;20474;-57
2022/10/03 13:44:40;;;;;;;6.60;2.30;;;;;;;;;;4971693;28;20439;-56
2022/10/03 13:47:29;;;;;;;3.40;2.20;;;;;;;;;;4996209;28;20482;-56
2022/10/03 13:49:57;;;;;;;5.03;2.57;;;;;;;;;;4989269;28;20439;-56
2022/10/03 13:52:26;;;;;;;7.87;2.77;;;;;;;;;;4997983;28;20520;-55
2022/10/03 13:55:12;;;;;;;5.63;2.90;;;;;;;;;;4977509;28;20558;-55
2022/10/03 13:57:43;;;;;;;5.70;2.67;;;;;;;;;;4992806;28;20433;-56
2022/10/03 14:00:15;;;;;;;3.63;2.40;;;;;;;;;;4996265;28;20448;-56
2022/10/03 14:02:57;;;;;;;5.00;2.53;;;;;;;;;;4996924;28;20456;-55
2022/10/03 14:05:24;;;;;;;7.07;2.83;;;;;;;;;;4971707;28;20440;-55
2022/10/03 14:08:09;;;;;;;5.40;2.60;;;;;;;;;;4990888;28;20498;-55
2022/10/03 14:10:36;;;;;;;2.80;2.40;;;;;;;;;;4969650;28;20451;-55
2022/10/03 14:13:02;;;;;;;3.97;2.63;;;;;;;;;;5003097;28;20440;-55
2022/10/03 14:15:28;;;;;;;4.07;2.50;;;;;;;;;;4969333;28;20471;-55
2022/10/03 14:18:13;;;;;;;5.90;2.57;;;;;;;;;;5002077;28;20471;-55
2022/10/03 14:20:39;;;;;;;5.90;2.73;;;;;;;;;;4991946;28;23116;-55
2022/10/03 14:23:05;;;;;;;7.10;3.00;;;;;;;;;;4999760;28;20425;-55
2022/10/03 14:25:32;;;;;;;6.03;2.57;;;;;;;;;;4996070;28;20439;-56
2022/10/03 14:28:10;;;;;;;5.63;2.30;;;;;;;;;;4994719;28;20452;-55
2022/10/03 14:30:43;;;;;;;6.70;2.70;;;;;;;;;;4967686;28;20453;-56
2022/10/03 14:33:16;;;;;;;6.10;2.50;;;;;;;;;;4997947;28;21117;-55
2022/10/03 14:35:45;;;;;;;4.30;2.70;;;;;;;;;;4968857;28;20477;-55
2022/10/03 14:41:24;;;;;;;3.83;2.80;;;;;;;;;;4989592;28;20523;-55
2022/10/03 14:43:58;;;;;;;7.43;4.43;;;;;;;;;;4982008;28;20440;-54
2022/10/03 14:46:25;;;;;;;7.27;3.73;;;;;;;;;;4992326;28;20549;-54
2022/10/03 14:49:27;;;;;;;6.40;3.70;;;;;;;;;;4998442;28;20431;-59
2022/10/03 14:52:20;;;;;;;5.57;2.47;;;;;;;;;;5000649;28;20450;-58
2022/10/03 14:54:46;;;;;;;7.30;2.60;;;;;;;;;;4980080;28;20440;-58
2022/10/03 14:57:13;;;;;;;7.90;3.20;;;;;;;;;;4994229;28;20757;-57
2022/10/03 14:59:39;;;;;;;8.73;3.30;;;;;;;;;;4992787;28;20428;-56
2022/10/03 15:02:21;;;;;;;3.90;2.40;;;;;;;;;;4997701;28;20447;-57
2022/10/03 15:04:46;;;;;;;4.00;3.00;;;;;;;;;;4980199;28;20447;-58
2022/10/03 15:07:13;;;;;;;3.13;2.50;;;;;;;;;;4983700;28;20472;-54
2022/10/03 15:09:41;;;;;;;5.27;2.90;;;;;;;;;;4990962;28;20455;-55
2022/10/03 15:12:18;;;;;;;5.00;2.43;;;;;;;;;;4994205;28;20957;-54
2022/10/03 15:14:53;;;;;;;4.97;2.53;;;;;;;;;;4966727;28;20444;-55
2022/10/03 15:17:23;;;;;;;3.43;2.50;;;;;;;;;;5031355;28;20475;-55
2022/10/03 15:19:53;;;;;;;6.63;2.90;;;;;;;;;;5006989;28;21658;-55
2022/10/03 15:22:25;;;;;;;4.57;2.37;;;;;;;;;;5003205;28;20464;-55
2022/10/03 15:24:51;;;;;;;10.60;3.33;;;;;;;;;;4980710;28;20539;-52
2022/10/03 15:27:19;;;;;;;4.33;2.50;;;;;;;;;;5034788;28;20487;-55
2022/10/03 15:29:45;;;;;;;5.10;2.43;;;;;;;;;;4999203;28;21219;-55
2022/10/03 15:32:19;;;;;;;3.63;3.00;;;;;;;;;;5003617;28;20503;-54
2022/10/03 15:34:48;;;;;;;3.30;2.40;;;;;;;;;;5007203;28;20456;-57
2022/10/03 15:37:17;;;;;;;6.90;3.30;;;;;;;;;;4975163;28;21409;-55
2022/10/03 15:39:44;;;;;;;4.40;2.27;;;;;;;;;;4986356;28;20484;-54
2022/10/03 15:42:11;;;;;;;4.40;2.63;;;;;;;;;;4984441;28;21239;-54